Time;durP1;ratioP1;P1;durP2;ratioP2;P2;SDS_P1;SDS_P2;PMS_P1;PMS_P2;Temp;Humidity;BMP_temperature;BMP_pressure;BME280_temperature;BME280_humidity;BME280_pressure;Samples;Min_cycle;Max_cycle;Signal;HPM_P1;HPM_P2
2022/07/13 00:00:56;;;;;;;1.13;1.13;;;22.20;99.90;;;;;;5060554;28;20206;-78
2022/07/13 00:03:23;;;;;;;1.40;1.30;;;22.10;99.90;;;;;;5056743;28;20238;-76
2022/07/13 00:05:50;;;;;;;1.40;1.30;;;22.10;99.90;;;;;;5061963;28;20226;-76
2022/07/13 00:08:17;;;;;;;1.65;1.40;;;22.00;99.90;;;;;;5062523;28;20226;-77
2022/07/13 00:10:44;;;;;;;1.45;1.35;;;21.90;99.90;;;;;;5057982;28;20201;-76
2022/07/13 00:13:11;;;;;;;1.20;1.20;;;21.80;99.90;;;;;;5060325;28;20684;-77
2022/07/13 00:15:40;;;;;;;1.55;1.45;;;21.80;99.90;;;;;;5062335;28;20190;-77
2022/07/13 00:18:07;;;;;;;1.45;1.35;;;21.70;99.90;;;;;;5062480;28;20217;-77
2022/07/13 00:20:34;;;;;;;1.20;1.20;;;21.70;99.90;;;;;;5063368;28;20209;-78
2022/07/13 00:23:01;;;;;;;1.25;1.23;;;21.70;99.90;;;;;;5074515;28;20750;-76
2022/07/13 00:25:28;;;;;;;1.60;1.50;;;21.70;99.90;;;;;;5062838;28;20615;-76
2022/07/13 00:27:55;;;;;;;1.42;1.30;;;21.70;99.90;;;;;;5061659;28;20217;-77
2022/07/13 00:30:22;;;;;;;1.40;1.30;;;21.70;99.90;;;;;;5064157;28;20195;-76
2022/07/13 00:32:51;;;;;;;2.35;1.25;;;21.60;99.90;;;;;;5061077;28;20229;-77
2022/07/13 00:35:18;;;;;;;1.60;1.50;;;21.60;99.90;;;;;;5065051;28;20659;-76
2022/07/13 00:37:45;;;;;;;1.45;1.35;;;21.50;99.90;;;;;;5064075;28;20646;-77
2022/07/13 00:40:13;;;;;;;1.13;1.13;;;21.40;99.90;;;;;;5067287;28;20205;-77
2022/07/13 00:42:40;;;;;;;1.30;1.20;;;21.40;99.90;;;;;;5059877;28;20214;-77
2022/07/13 00:45:08;;;;;;;1.15;1.10;;;21.40;99.90;;;;;;5064527;28;20202;-76
2022/07/13 00:47:35;;;;;;;1.30;1.20;;;21.40;99.90;;;;;;5065475;28;20234;-77
2022/07/13 00:50:07;;;;;;;1.52;1.42;;;21.30;99.90;;;;;;5067637;28;20205;-77
2022/07/13 00:52:34;;;;;;;1.58;1.48;;;21.40;99.90;;;;;;5066943;28;20287;-78
2022/07/13 00:55:02;;;;;;;1.08;1.08;;;21.30;99.90;;;;;;5067664;28;20749;-76
2022/07/13 00:57:33;;;;;;;1.40;1.30;;;21.30;99.90;;;;;;5068142;28;20229;-77
2022/07/13 01:00:03;;;;;;;1.40;1.30;;;21.30;99.90;;;;;;5066670;28;20574;-77
2022/07/13 01:02:30;;;;;;;1.33;1.23;;;21.30;99.90;;;;;;5057925;28;20629;-77
2022/07/13 01:04:58;;;;;;;1.20;1.20;;;21.30;99.90;;;;;;5048059;28;20199;-78
2022/07/13 01:07:26;;;;;;;1.10;1.10;;;21.30;99.90;;;;;;5047135;28;20225;-77
2022/07/13 01:09:53;;;;;;;1.30;1.20;;;21.30;99.90;;;;;;5048664;28;20203;-76
2022/07/13 01:12:20;;;;;;;1.30;1.20;;;21.30;99.90;;;;;;5047317;28;20221;-77
2022/07/13 01:14:48;;;;;;;1.27;1.20;;;21.30;99.90;;;;;;5053990;28;20194;-77
2022/07/13 01:17:15;;;;;;;1.58;1.48;;;21.20;99.90;;;;;;5047245;28;20283;-77
2022/07/13 01:19:43;;;;;;;1.60;1.50;;;21.10;99.90;;;;;;5068318;28;20202;-76
2022/07/13 01:22:15;;;;;;;1.42;1.33;;;21.10;99.90;;;;;;5069238;28;20230;-77
2022/07/13 01:24:45;;;;;;;1.45;1.35;;;21.00;99.90;;;;;;5067440;28;20224;-76
2022/07/13 01:27:13;;;;;;;2.08;1.50;;;21.00;99.90;;;;;;5069397;28;20230;-76
2022/07/13 01:29:40;;;;;;;2.45;1.40;;;21.00;99.90;;;;;;5065547;28;20289;-76
2022/07/13 01:32:07;;;;;;;1.58;1.48;;;21.00;99.90;;;;;;5064558;28;20219;-76
2022/07/13 01:34:35;;;;;;;1.50;1.40;;;21.00;99.90;;;;;;5067545;28;20205;-76
2022/07/13 01:37:02;;;;;;;1.52;1.42;;;20.90;99.90;;;;;;5067530;28;21316;-75
2022/07/13 01:39:29;;;;;;;1.30;1.30;;;20.90;99.90;;;;;;5069970;28;20197;-77
2022/07/13 01:41:58;;;;;;;1.40;1.30;;;20.90;99.90;;;;;;5068258;28;20221;-77
2022/07/13 01:44:25;;;;;;;1.70;1.60;;;20.90;99.90;;;;;;5069370;28;20190;-77
2022/07/13 01:46:52;;;;;;;1.48;1.40;;;20.90;99.90;;;;;;5064787;28;20719;-77
2022/07/13 01:49:19;;;;;;;1.60;1.50;;;20.90;99.90;;;;;;5069898;28;20648;-76
2022/07/13 01:51:46;;;;;;;1.08;1.08;;;20.90;99.90;;;;;;5066984;28;20577;-76
2022/07/13 01:54:13;;;;;;;1.42;1.33;;;20.90;99.90;;;;;;5067040;28;20267;-77
2022/07/13 01:56:40;;;;;;;1.80;1.70;;;20.80;99.90;;;;;;5066079;28;20217;-75
2022/07/13 01:59:09;;;;;;;2.55;1.67;;;20.80;99.90;;;;;;5062115;28;20600;-77
2022/07/13 02:01:36;;;;;;;1.60;1.50;;;20.80;99.90;;;;;;5065387;28;20197;-77
2022/07/13 02:04:03;;;;;;;1.60;1.50;;;20.70;99.90;;;;;;5072543;28;20229;-78
2022/07/13 02:06:30;;;;;;;1.40;1.30;;;20.60;99.90;;;;;;5077476;28;20217;-76
2022/07/13 02:08:57;;;;;;;1.55;1.40;;;20.60;99.90;;;;;;5064359;28;20233;-76
2022/07/13 02:11:24;;;;;;;1.40;1.33;;;20.60;99.90;;;;;;5067025;28;20198;-75
2022/07/13 02:13:51;;;;;;;1.30;1.27;;;20.60;99.90;;;;;;5066075;28;20225;-77
2022/07/13 02:16:21;;;;;;;1.60;1.30;;;20.50;99.90;;;;;;5068136;28;20229;-76
2022/07/13 02:18:48;;;;;;;1.50;1.40;;;20.50;99.90;;;;;;5066405;28;20222;-77
2022/07/13 02:21:15;;;;;;;2.42;1.60;;;20.50;99.90;;;;;;5067234;28;20210;-77
2022/07/13 02:23:42;;;;;;;1.83;1.73;;;20.40;99.90;;;;;;5068863;28;20221;-76
2022/07/13 02:26:09;;;;;;;1.63;1.52;;;20.40;99.90;;;;;;5065268;28;20230;-77
2022/07/13 02:28:37;;;;;;;2.22;2.05;;;20.30;99.90;;;;;;5069408;28;20873;-78
2022/07/13 02:31:04;;;;;;;1.58;1.48;;;20.30;99.90;;;;;;5061850;28;20227;-76
2022/07/13 02:33:32;;;;;;;1.67;1.58;;;20.30;99.90;;;;;;5066652;28;20214;-76
2022/07/13 02:35:59;;;;;;;2.17;1.58;;;20.30;99.90;;;;;;5062988;28;20225;-78
2022/07/13 02:38:27;;;;;;;1.70;1.60;;;20.20;99.90;;;;;;5063203;28;20710;-76
2022/07/13 02:40:54;;;;;;;2.00;1.90;;;20.20;99.90;;;;;;5063969;28;20190;-77
2022/07/13 02:43:21;;;;;;;2.28;2.13;;;20.10;99.90;;;;;;5066165;28;20307;-76
2022/07/13 02:45:48;;;;;;;1.70;1.60;;;20.10;99.90;;;;;;5067622;28;20603;-77
2022/07/13 02:48:15;;;;;;;1.80;1.70;;;20.10;99.90;;;;;;5064657;28;20288;-77
2022/07/13 02:50:43;;;;;;;1.85;1.75;;;20.00;99.90;;;;;;5064452;28;20194;-77
2022/07/13 02:53:10;;;;;;;1.92;1.80;;;20.00;99.90;;;;;;5063740;28;20221;-76
2022/07/13 02:55:37;;;;;;;1.90;1.80;;;20.00;99.90;;;;;;5074832;28;20233;-77
2022/07/13 02:58:04;;;;;;;1.85;1.75;;;19.90;99.90;;;;;;5068678;28;20218;-76
2022/07/13 03:00:32;;;;;;;1.80;1.70;;;19.90;99.90;;;;;;5062161;28;20228;-76
2022/07/13 03:02:59;;;;;;;2.22;1.90;;;19.90;99.90;;;;;;5064219;28;20218;-77
2022/07/13 03:05:26;;;;;;;3.20;1.92;;;19.90;99.90;;;;;;5066533;28;20205;-76
2022/07/13 03:07:54;;;;;;;1.60;1.50;;;19.90;99.90;;;;;;5062596;28;20637;-76
2022/07/13 03:10:21;;;;;;;2.03;1.92;;;19.80;99.90;;;;;;5067104;28;20239;-76
2022/07/13 03:12:48;;;;;;;2.03;1.92;;;19.80;99.90;;;;;;5068168;28;20210;-76
2022/07/13 03:15:15;;;;;;;1.88;1.77;;;19.80;99.90;;;;;;5063801;28;20221;-76
2022/07/13 03:17:43;;;;;;;1.88;1.77;;;19.70;99.90;;;;;;5065720;28;20995;-76
2022/07/13 03:20:11;;;;;;;3.10;2.13;;;19.70;99.90;;;;;;5065006;28;20206;-75
2022/07/13 03:22:38;;;;;;;2.25;2.15;;;19.70;99.90;;;;;;5062972;28;20307;-76
2022/07/13 03:25:08;;;;;;;2.85;2.17;;;19.70;99.90;;;;;;5064882;28;20609;-77
2022/07/13 03:27:35;;;;;;;1.70;1.60;;;19.70;99.90;;;;;;5065489;28;20225;-76
2022/07/13 03:30:03;;;;;;;2.03;1.92;;;19.60;99.90;;;;;;5065127;28;20194;-76
2022/07/13 03:32:30;;;;;;;1.92;1.83;;;19.60;99.90;;;;;;5061594;28;20224;-77
2022/07/13 03:34:57;;;;;;;1.90;1.80;;;19.60;99.90;;;;;;5063781;28;20221;-76
2022/07/13 03:37:24;;;;;;;1.70;1.60;;;19.60;99.90;;;;;;5064391;28;20224;-76
2022/07/13 03:39:51;;;;;;;1.95;1.73;;;19.70;99.90;;;;;;5064799;28;20198;-76
2022/07/13 03:42:20;;;;;;;2.03;1.92;;;19.70;99.90;;;;;;5061506;28;20704;-76
2022/07/13 03:44:47;;;;;;;1.77;1.67;;;19.70;99.90;;;;;;5066080;28;20213;-76
2022/07/13 03:47:14;;;;;;;1.50;1.40;;;19.70;99.90;;;;;;5074959;28;20221;-77
2022/07/13 03:49:41;;;;;;;2.05;1.92;;;19.80;99.90;;;;;;5066513;28;20190;-75
2022/07/13 03:52:08;;;;;;;1.77;1.67;;;19.80;99.90;;;;;;5065913;28;20219;-75
2022/07/13 03:54:35;;;;;;;1.77;1.67;;;19.80;99.90;;;;;;5064715;28;20222;-76
2022/07/13 03:57:02;;;;;;;1.85;1.63;;;19.80;99.90;;;;;;5065322;28;20607;-76
2022/07/13 03:59:31;;;;;;;1.90;1.80;;;19.70;99.90;;;;;;5060891;28;20197;-76
2022/07/13 04:01:58;;;;;;;1.60;1.50;;;19.70;99.90;;;;;;5063891;28;20332;-76
2022/07/13 04:04:26;;;;;;;2.00;1.90;;;19.70;99.90;;;;;;5064708;28;20201;-76
2022/07/13 04:06:53;;;;;;;2.20;2.00;;;19.70;99.90;;;;;;5064009;28;20305;-77
2022/07/13 04:09:21;;;;;;;1.75;1.65;;;19.60;99.90;;;;;;5064565;28;20202;-76
2022/07/13 04:11:48;;;;;;;1.98;1.85;;;19.60;99.90;;;;;;5060722;28;20285;-76
2022/07/13 04:14:15;;;;;;;1.80;1.70;;;19.60;99.90;;;;;;5061330;28;20252;-77
2022/07/13 04:16:44;;;;;;;2.08;1.90;;;19.60;99.90;;;;;;5061339;28;20228;-76
2022/07/13 04:19:11;;;;;;;1.60;1.50;;;19.70;99.90;;;;;;5064128;28;20205;-77
2022/07/13 04:21:38;;;;;;;1.63;1.52;;;19.80;99.90;;;;;;5066580;28;20206;-76
2022/07/13 04:24:06;;;;;;;1.73;1.63;;;19.80;99.90;;;;;;5063124;28;20379;-77
2022/07/13 04:26:34;;;;;;;1.60;1.50;;;19.90;99.90;;;;;;5066716;28;20225;-75
2022/07/13 04:29:01;;;;;;;1.95;1.85;;;19.90;99.90;;;;;;5061237;28;20221;-77
2022/07/13 04:31:28;;;;;;;1.63;1.52;;;20.00;99.90;;;;;;5065224;28;20202;-78
2022/07/13 04:33:57;;;;;;;1.40;1.40;;;20.10;99.90;;;;;;5059443;28;20217;-77
2022/07/13 04:36:24;;;;;;;1.70;1.60;;;20.20;99.90;;;;;;5066415;28;20221;-76
2022/07/13 04:38:51;;;;;;;1.60;1.50;;;20.30;99.90;;;;;;5070597;28;20225;-77
2022/07/13 04:41:18;;;;;;;1.60;1.50;;;20.40;99.90;;;;;;5066673;28;20696;-77
2022/07/13 04:43:45;;;;;;;1.67;1.58;;;20.40;99.90;;;;;;5058530;28;20222;-76
2022/07/13 04:46:12;;;;;;;1.40;1.30;;;20.50;99.90;;;;;;5063042;28;22244;-77
2022/07/13 04:48:40;;;;;;;1.83;1.73;;;20.50;99.90;;;;;;5064749;28;20302;-77
2022/07/13 04:51:09;;;;;;;1.70;1.60;;;20.60;99.90;;;;;;5068197;28;20286;-76
2022/07/13 04:53:36;;;;;;;1.60;1.50;;;20.70;99.90;;;;;;5063965;28;20225;-76
2022/07/13 04:56:03;;;;;;;1.42;1.33;;;20.80;99.90;;;;;;5062343;28;20217;-76
2022/07/13 04:58:30;;;;;;;1.40;1.30;;;20.80;99.90;;;;;;5059802;28;20233;-76
2022/07/13 05:00:57;;;;;;;1.70;1.60;;;20.90;99.90;;;;;;5056607;28;20202;-76
2022/07/13 05:03:24;;;;;;;1.60;1.50;;;21.00;99.90;;;;;;5062428;28;20214;-76
2022/07/13 05:05:51;;;;;;;1.40;1.30;;;21.10;99.90;;;;;;5067160;28;20250;-75
2022/07/13 05:08:20;;;;;;;1.40;1.30;;;21.00;99.90;;;;;;5068746;28;20225;-75
2022/07/13 05:10:47;;;;;;;1.35;1.25;;;21.00;99.90;;;;;;5068869;28;20199;-76
2022/07/13 05:13:14;;;;;;;2.60;1.48;;;21.00;99.90;;;;;;5065539;28;20221;-76
2022/07/13 05:15:41;;;;;;;1.60;1.50;;;20.90;99.90;;;;;;5057921;28;20258;-75
2022/07/13 05:18:08;;;;;;;1.60;1.45;;;21.00;99.90;;;;;;5061935;28;20219;-75
2022/07/13 05:20:35;;;;;;;1.70;1.60;;;21.00;99.90;;;;;;5066591;28;20199;-75
2022/07/13 05:23:02;;;;;;;1.27;1.27;;;21.10;99.90;;;;;;5064134;28;20221;-76
2022/07/13 05:25:31;;;;;;;1.30;1.30;;;21.20;99.90;;;;;;5062325;28;20222;-76
2022/07/13 05:27:58;;;;;;;1.60;1.50;;;21.20;99.90;;;;;;5054260;28;20214;-76
2022/07/13 05:30:25;;;;;;;1.42;1.33;;;21.20;99.90;;;;;;5068992;28;20567;-76
2022/07/13 05:32:52;;;;;;;1.10;1.10;;;21.30;99.90;;;;;;5063271;28;20222;-76
2022/07/13 05:35:19;;;;;;;1.40;1.30;;;21.40;99.90;;;;;;5067113;28;20233;-73
2022/07/13 05:37:47;;;;;;;1.52;1.20;;;21.60;99.90;;;;;;5059946;28;20652;-74
2022/07/13 05:40:14;;;;;;;1.38;1.27;;;21.70;99.90;;;;;;5064275;28;20664;-73
2022/07/13 05:42:43;;;;;;;2.55;1.20;;;21.80;99.90;;;;;;5066640;28;20564;-74
2022/07/13 05:45:10;;;;;;;1.23;1.23;;;21.90;99.90;;;;;;5063149;28;20823;-74
2022/07/13 05:47:37;;;;;;;1.17;1.08;;;22.00;99.90;;;;;;5064179;28;20229;-73
2022/07/13 05:50:05;;;;;;;1.27;1.17;;;22.10;99.90;;;;;;5068072;28;20194;-73
2022/07/13 05:52:33;;;;;;;1.40;1.30;;;22.10;99.90;;;;;;5062664;28;20230;-74
2022/07/13 05:55:00;;;;;;;2.42;1.30;;;22.20;99.90;;;;;;5064951;28;20229;-75
2022/07/13 05:57:27;;;;;;;1.30;1.20;;;22.30;99.90;;;;;;5060210;28;20221;-74
2022/07/13 05:59:55;;;;;;;1.45;1.35;;;22.30;99.90;;;;;;5067282;28;20221;-75
2022/07/13 06:02:22;;;;;;;3.30;1.30;;;22.30;99.90;;;;;;5063690;28;20222;-74
2022/07/13 06:04:49;;;;;;;4.53;1.40;;;22.30;99.90;;;;;;5065747;28;20191;-74
2022/07/13 06:07:17;;;;;;;1.35;1.25;;;22.30;99.90;;;;;;5063120;28;20219;-73
2022/07/13 06:09:44;;;;;;;1.30;1.20;;;22.30;99.90;;;;;;5064297;28;20213;-75
2022/07/13 06:12:11;;;;;;;1.75;1.40;;;22.40;99.90;;;;;;5068567;28;20729;-75
2022/07/13 06:14:38;;;;;;;1.92;1.67;;;22.30;99.90;;;;;;5067900;28;20608;-74
2022/07/13 06:17:06;;;;;;;1.23;1.10;;;22.30;99.90;;;;;;5068237;28;20225;-74
2022/07/13 06:19:34;;;;;;;2.13;1.50;;;22.30;99.90;;;;;;5066208;28;20199;-73
2022/07/13 06:22:01;;;;;;;1.80;1.50;;;22.30;99.90;;;;;;5064165;28;20283;-75
2022/07/13 06:24:28;;;;;;;1.48;1.38;;;22.50;99.90;;;;;;5075675;28;20191;-74
2022/07/13 06:26:55;;;;;;;3.20;1.10;;;22.70;99.90;;;;;;5068791;28;20224;-74
2022/07/13 06:29:22;;;;;;;1.30;1.20;;;22.80;99.90;;;;;;5067181;28;20199;-74
2022/07/13 06:31:49;;;;;;;1.35;1.27;;;22.80;99.90;;;;;;5073558;28;20198;-75
2022/07/13 06:34:18;;;;;;;3.00;1.50;;;22.90;99.90;;;;;;5068720;28;20221;-74
2022/07/13 06:36:45;;;;;;;2.00;1.42;;;23.10;99.90;;;;;;5067273;28;20218;-74
2022/07/13 06:39:12;;;;;;;1.50;1.40;;;23.10;99.90;;;;;;5059150;28;20202;-75
2022/07/13 06:41:39;;;;;;;2.97;1.58;;;23.20;99.90;;;;;;5058809;28;21468;-73
2022/07/13 06:44:07;;;;;;;1.38;1.27;;;23.30;99.90;;;;;;5060092;28;20232;-74
2022/07/13 06:46:34;;;;;;;2.45;1.35;;;23.40;99.90;;;;;;5062001;28;20226;-74
2022/07/13 06:49:01;;;;;;;1.63;1.38;;;23.50;99.90;;;;;;5062453;28;20214;-75
2022/07/13 06:51:29;;;;;;;1.40;1.30;;;23.60;99.90;;;;;;5061347;28;20199;-75
2022/07/13 06:53:56;;;;;;;1.77;1.30;;;23.60;99.90;;;;;;5060435;28;20297;-73
2022/07/13 06:56:24;;;;;;;1.83;1.15;;;23.70;99.90;;;;;;5065578;28;20230;-75
2022/07/13 06:58:51;;;;;;;2.67;1.25;;;23.60;99.90;;;;;;5061060;28;20309;-74
2022/07/13 07:01:19;;;;;;;3.10;1.10;;;23.80;99.90;;;;;;5067846;28;20261;-74
2022/07/13 07:03:46;;;;;;;1.38;1.27;;;24.00;99.90;;;;;;5058815;28;20699;-74
2022/07/13 07:06:13;;;;;;;1.77;1.17;;;24.40;99.90;;;;;;5065795;28;20309;-75
2022/07/13 07:08:42;;;;;;;1.38;1.27;;;24.50;99.90;;;;;;5065277;28;20223;-74
2022/07/13 07:11:09;;;;;;;1.15;1.13;;;24.50;99.90;;;;;;5057523;28;20205;-73
2022/07/13 07:13:36;;;;;;;2.10;1.60;;;24.60;99.90;;;;;;5061164;28;20234;-74
2022/07/13 07:16:03;;;;;;;1.65;1.55;;;24.70;99.90;;;;;;5068957;28;20226;-73
2022/07/13 07:18:30;;;;;;;5.35;1.60;;;24.70;99.90;;;;;;5064052;28;20225;-74
2022/07/13 07:21:00;;;;;;;1.00;1.00;;;24.70;99.90;;;;;;5062531;28;20190;-76
2022/07/13 07:23:27;;;;;;;1.35;1.15;;;24.70;99.90;;;;;;5060471;28;20225;-74
2022/07/13 07:25:55;;;;;;;1.70;1.30;;;24.60;99.90;;;;;;5062125;28;20218;-74
2022/07/13 07:28:23;;;;;;;1.35;1.20;;;24.70;99.90;;;;;;5061987;28;20222;-73
2022/07/13 07:30:51;;;;;;;2.30;1.25;;;24.60;99.90;;;;;;5060177;28;20230;-74
2022/07/13 07:33:18;;;;;;;2.90;1.50;;;24.60;99.90;;;;;;5060682;28;20226;-73
2022/07/13 07:35:45;;;;;;;1.40;1.30;;;24.60;99.90;;;;;;5065044;28;20223;-74
2022/07/13 07:38:13;;;;;;;1.20;1.10;;;24.70;99.90;;;;;;5064594;28;20243;-74
2022/07/13 07:40:40;;;;;;;1.60;1.10;;;25.00;99.90;;;;;;5062639;28;20202;-75
2022/07/13 07:43:09;;;;;;;1.52;1.42;;;25.10;99.90;;;;;;5065387;28;20214;-75
2022/07/13 07:45:36;;;;;;;1.10;1.10;;;25.20;99.90;;;;;;5063108;28;20202;-75
2022/07/13 07:48:04;;;;;;;2.95;1.40;;;25.20;99.90;;;;;;5066788;28;20228;-75
2022/07/13 07:50:31;;;;;;;1.30;1.20;;;25.30;99.90;;;;;;5062107;28;20209;-74
2022/07/13 07:52:58;;;;;;;1.33;1.20;;;25.30;99.90;;;;;;5065240;28;20822;-75
2022/07/13 07:55:25;;;;;;;2.53;1.25;;;25.30;99.90;;;;;;5063205;28;20214;-72
2022/07/13 07:57:53;;;;;;;1.35;1.25;;;25.40;99.90;;;;;;5063776;28;20225;-74
2022/07/13 08:00:22;;;;;;;1.30;1.20;;;25.50;99.90;;;;;;5058036;28;20249;-74
2022/07/13 08:02:50;;;;;;;1.45;1.20;;;25.70;99.90;;;;;;5057401;28;20234;-75
2022/07/13 08:05:18;;;;;;;1.40;1.30;;;25.80;99.90;;;;;;5063126;28;20193;-75
2022/07/13 08:07:46;;;;;;;2.85;1.40;;;26.00;99.90;;;;;;5069921;28;20695;-73
2022/07/13 08:10:14;;;;;;;1.45;1.35;;;26.00;99.90;;;;;;5068572;28;20692;-75
2022/07/13 08:12:41;;;;;;;1.30;1.20;;;26.00;99.90;;;;;;5062509;28;20225;-74
2022/07/13 08:15:09;;;;;;;1.30;1.20;;;26.00;99.00;;;;;;5055096;28;20243;-74
2022/07/13 08:17:39;;;;;;;1.40;1.30;;;26.10;99.10;;;;;;5058140;28;20827;-73
2022/07/13 08:20:07;;;;;;;1.40;1.30;;;26.20;98.30;;;;;;5099162;22;20254;-75
2022/07/13 08:22:34;;;;;;;1.40;1.30;;;26.20;98.70;;;;;;5043686;28;20251;-76
2022/07/13 08:25:01;;;;;;;1.40;1.33;;;26.20;98.50;;;;;;5047129;28;20199;-74
2022/07/13 08:27:30;;;;;;;1.20;1.10;;;26.40;97.70;;;;;;5053509;28;20226;-74
2022/07/13 08:29:57;;;;;;;1.40;1.30;;;26.30;97.10;;;;;;5039589;28;20215;-74
2022/07/13 08:32:24;;;;;;;1.40;1.30;;;26.20;97.50;;;;;;5037030;28;20219;-75
2022/07/13 08:40:22;;;;;;;1.30;1.20;;;26.40;97.30;;;;;;5013855;28;20223;-74
2022/07/13 08:42:49;;;;;;;3.03;1.10;;;26.50;98.10;;;;;;5044891;28;20629;-76
2022/07/13 08:45:17;;;;;;;2.45;1.35;;;26.50;97.80;;;;;;5039818;28;20199;-75
2022/07/13 08:47:45;;;;;;;1.48;1.38;;;26.80;98.40;;;;;;5046980;28;20218;-72
2022/07/13 08:50:14;;;;;;;1.80;1.17;;;26.90;98.00;;;;;;5046005;28;20250;-74
2022/07/13 08:52:42;;;;;;;1.60;1.20;;;26.80;97.90;;;;;;5028718;28;20219;-74
2022/07/13 08:55:10;;;;;;;1.25;1.15;;;26.80;99.10;;;;;;5025689;28;20314;-75
2022/07/13 08:57:39;;;;;;;1.98;1.25;;;27.00;99.50;;;;;;5022541;28;20229;-72
2022/07/13 09:00:08;;;;;;;1.38;1.27;;;27.40;99.00;;;;;;5018612;28;20727;-75
2022/07/13 09:02:36;;;;;;;1.27;1.17;;;27.50;98.20;;;;;;5021260;28;20653;-72
2022/07/13 09:05:05;;;;;;;1.40;1.30;;;27.40;98.10;;;;;;5017609;28;20229;-75
2022/07/13 09:07:34;;;;;;;2.72;1.20;;;27.30;97.80;;;;;;5021539;28;20266;-73
2022/07/13 09:10:02;;;;;;;1.45;1.35;;;27.30;97.80;;;;;;5024106;28;20216;-73
2022/07/13 09:12:30;;;;;;;1.17;1.02;;;27.30;98.00;;;;;;5024809;28;20654;-75
2022/07/13 09:14:59;;;;;;;2.08;1.20;;;27.50;98.40;;;;;;5026829;28;20219;-75
2022/07/13 09:17:32;;;;;;;1.10;1.05;;;27.50;98.00;;;;;;5017555;28;20243;-75
2022/07/13 09:20:03;;;;;;;1.10;1.00;;;27.50;97.10;;;;;;5023207;28;20235;-75
2022/07/13 09:22:30;;;;;;;1.15;1.13;;;27.70;97.40;;;;;;5029809;28;20219;-76
2022/07/13 09:25:00;;;;;;;1.40;1.30;;;27.80;97.70;;;;;;5032830;28;20191;-75
2022/07/13 09:27:27;;;;;;;1.05;1.05;;;28.10;97.10;;;;;;5027841;28;20223;-76
2022/07/13 09:29:54;;;;;;;1.15;1.10;;;28.10;95.50;;;;;;5025386;28;20223;-76
2022/07/13 09:32:22;;;;;;;1.20;1.10;;;28.10;95.70;;;;;;5040672;28;20230;-74
2022/07/13 09:34:53;;;;;;;1.55;1.35;;;28.20;96.20;;;;;;5034258;28;20278;-75
2022/07/13 09:37:22;;;;;;;0.90;0.90;;;28.30;96.30;;;;;;5035569;28;20223;-78
2022/07/13 09:40:11;;;;;;;1.27;1.00;;;28.40;96.20;;;;;;5041513;28;20749;-75
2022/07/13 09:42:40;;;;;;;1.38;1.00;;;28.40;93.60;;;;;;5034736;28;20609;-75
2022/07/13 09:47:55;;;;;;;1.30;1.20;;;28.60;94.00;;;;;;5028075;28;20294;-74
2022/07/13 09:50:24;;;;;;;1.27;1.17;;;28.60;94.40;;;;;;5026690;28;20222;-76
2022/07/13 09:52:53;;;;;;;2.35;1.10;;;28.70;94.10;;;;;;5036753;28;20264;-74
2022/07/13 09:55:24;;;;;;;1.70;1.25;;;28.70;93.80;;;;;;5032735;28;20222;-74
2022/07/13 09:57:57;;;;;;;1.45;1.20;;;28.80;93.30;;;;;;5025106;28;20303;-75
2022/07/13 10:00:26;;;;;;;1.02;1.02;;;28.70;92.60;;;;;;5033135;28;20292;-75
2022/07/13 10:02:53;;;;;;;1.05;1.00;;;28.80;93.90;;;;;;5042590;28;20216;-76
2022/07/13 10:05:20;;;;;;;1.50;1.40;;;29.10;93.70;;;;;;5030271;28;20212;-76
2022/07/13 10:07:48;;;;;;;1.10;1.00;;;29.30;93.80;;;;;;5031390;28;20228;-76
2022/07/13 10:10:17;;;;;;;1.33;0.93;;;29.50;92.80;;;;;;5039218;28;20215;-74
2022/07/13 10:12:45;;;;;;;1.67;1.13;;;29.40;92.90;;;;;;5034273;28;20220;-76
2022/07/13 10:15:14;;;;;;;1.40;1.30;;;29.40;93.00;;;;;;5037251;28;20724;-75
2022/07/13 10:17:47;;;;;;;1.73;1.30;;;29.50;93.50;;;;;;5029359;28;20266;-77
2022/07/13 10:20:18;;;;;;;1.05;1.02;;;29.70;93.20;;;;;;5035427;28;20231;-76
2022/07/13 10:22:46;;;;;;;1.40;1.30;;;29.60;92.80;;;;;;5028566;28;20227;-76
2022/07/13 10:25:14;;;;;;;1.40;1.30;;;29.80;93.60;;;;;;5045621;28;20250;-76
2022/07/13 10:27:43;;;;;;;2.85;1.25;;;30.00;93.10;;;;;;5038413;28;20219;-76
2022/07/13 10:30:23;;;;;;;1.90;1.35;;;30.10;93.90;;;;;;5041505;28;20249;-76
2022/07/13 10:32:51;;;;;;;3.10;1.00;;;30.10;93.40;;;;;;5051984;28;20215;-76
2022/07/13 10:35:20;;;;;;;1.58;1.35;;;30.00;93.60;;;;;;5040232;28;20223;-76
2022/07/13 10:38:15;;;;;;;1.70;1.60;;;30.10;94.10;;;;;;5039247;28;20278;-76
2022/07/13 10:40:43;;;;;;;1.92;1.40;;;30.20;94.80;;;;;;5032436;28;20207;-76
2022/07/13 10:43:14;;;;;;;2.67;1.40;;;30.10;94.30;;;;;;5037115;28;20268;-76
2022/07/13 10:45:44;;;;;;;2.83;1.42;;;30.10;95.50;;;;;;5027376;28;20199;-75
2022/07/13 10:48:45;;;;;;;1.65;1.30;;;30.20;96.50;;;;;;5031443;28;20219;-76
2022/07/13 10:51:22;;;;;;;1.60;1.50;;;30.30;96.50;;;;;;5032260;28;20699;-74
2022/07/13 10:54:10;;;;;;;1.95;1.60;;;30.20;95.70;;;;;;5043555;28;20222;-74
2022/07/13 10:57:17;;;;;;;1.90;1.55;;;30.20;95.20;;;;;;5046590;28;20216;-75
2022/07/13 10:59:50;;;;;;;1.33;1.23;;;30.10;94.10;;;;;;5025202;28;20226;-75
2022/07/13 11:02:56;;;;;;;3.33;1.52;;;30.10;94.90;;;;;;5041637;28;20251;-76
2022/07/13 11:05:36;;;;;;;1.60;1.15;;;30.10;93.70;;;;;;5031367;28;20192;-76
2022/07/13 11:08:13;;;;;;;2.20;1.40;;;30.40;94.20;;;;;;5043215;28;20219;-77
2022/07/13 11:10:40;;;;;;;3.22;1.40;;;30.50;94.80;;;;;;5032949;28;20187;-76
2022/07/13 11:13:09;;;;;;;1.50;1.40;;;30.60;94.50;;;;;;5040475;28;20236;-77
2022/07/13 11:15:48;;;;;;;2.05;1.30;;;30.50;94.50;;;;;;5050176;28;21216;-76
2022/07/13 11:18:31;;;;;;;1.48;1.38;;;30.50;94.50;;;;;;5022076;28;20222;-75
2022/07/13 11:21:02;;;;;;;1.20;1.13;;;30.80;94.70;;;;;;5033882;28;20263;-76
2022/07/13 11:26:28;;;;;;;1.65;1.25;;;31.20;92.10;;;;;;5039104;28;20269;-76
2022/07/13 11:29:06;;;;;;;1.35;1.10;;;31.30;91.60;;;;;;5038214;28;20744;-75
2022/07/13 11:31:33;;;;;;;2.10;1.10;;;31.30;90.90;;;;;;5041580;28;20198;-76
2022/07/13 11:34:02;;;;;;;1.20;1.13;;;31.40;90.50;;;;;;5047177;28;20226;-76
2022/07/13 11:36:29;;;;;;;3.35;1.63;;;31.50;91.00;;;;;;5043388;28;20697;-77
2022/07/13 11:38:56;;;;;;;1.40;1.13;;;31.40;90.70;;;;;;5042470;28;20230;-76
2022/07/13 11:41:23;;;;;;;2.45;1.00;;;31.50;91.10;;;;;;5037844;28;20279;-76
2022/07/13 11:43:51;;;;;;;1.02;1.02;;;31.50;90.10;;;;;;5020915;28;20654;-76
2022/07/13 11:46:25;;;;;;;2.20;1.40;;;31.40;88.90;;;;;;5024572;28;20237;-74
2022/07/13 11:49:01;;;;;;;4.55;1.40;;;31.40;91.00;;;;;;5026229;28;20223;-77
2022/07/13 11:51:28;;;;;;;1.10;1.08;;;31.40;91.60;;;;;;5024542;28;20187;-75
2022/07/13 11:53:56;;;;;;;4.03;1.40;;;31.40;91.80;;;;;;5034683;28;20450;-76
2022/07/13 11:56:23;;;;;;;2.78;1.60;;;31.40;90.90;;;;;;5025913;28;20207;-75
2022/07/13 11:58:50;;;;;;;1.48;1.30;;;31.40;91.80;;;;;;5024279;28;20219;-76
2022/07/13 12:01:18;;;;;;;1.60;1.10;;;31.40;91.40;;;;;;5028422;28;20199;-76
2022/07/13 12:03:50;;;;;;;1.60;1.30;;;31.60;90.50;;;;;;5033022;28;20305;-75
2022/07/13 12:06:19;;;;;;;2.08;1.15;;;31.70;90.20;;;;;;5034191;28;20230;-77
2022/07/13 12:08:47;;;;;;;2.55;1.30;;;31.80;89.40;;;;;;5033976;28;20694;-75
2022/07/13 12:11:16;;;;;;;1.52;1.20;;;31.80;89.50;;;;;;5030984;28;20651;-76
2022/07/13 12:13:45;;;;;;;1.80;1.30;;;31.80;89.40;;;;;;5039737;28;20605;-76
2022/07/13 12:16:13;;;;;;;1.27;1.10;;;31.90;89.50;;;;;;5038969;28;20254;-74
2022/07/13 12:18:58;;;;;;;1.75;1.45;;;32.00;87.10;;;;;;5037932;28;20230;-78
2022/07/13 12:21:27;;;;;;;2.22;1.20;;;32.10;87.60;;;;;;5024496;28;20203;-75
2022/07/13 12:23:54;;;;;;;1.80;1.30;;;32.10;88.10;;;;;;5035667;28;20231;-76
2022/07/13 12:26:21;;;;;;;2.47;1.23;;;32.00;87.90;;;;;;5031187;28;20191;-76
2022/07/13 12:28:48;;;;;;;1.58;1.20;;;31.90;87.20;;;;;;5035734;28;20227;-76
2022/07/13 12:31:20;;;;;;;2.13;1.30;;;31.80;86.60;;;;;;5037452;28;20282;-75
2022/07/13 12:33:50;;;;;;;2.33;1.42;;;31.90;87.00;;;;;;5040264;28;20218;-75
2022/07/13 12:36:20;;;;;;;2.80;1.38;;;32.00;87.20;;;;;;5037425;28;20226;-77
2022/07/13 12:38:56;;;;;;;1.30;1.20;;;32.00;86.50;;;;;;5030146;28;20281;-75
2022/07/13 12:41:28;;;;;;;5.35;1.50;;;32.00;88.00;;;;;;5032612;28;20194;-76
2022/07/13 12:43:59;;;;;;;1.52;1.42;;;32.10;87.70;;;;;;5034245;28;20218;-76
2022/07/13 12:46:27;;;;;;;1.30;1.20;;;32.20;87.60;;;;;;5041556;28;20202;-77
2022/07/13 12:49:03;;;;;;;1.63;1.25;;;32.30;87.90;;;;;;5042757;28;20743;-76
2022/07/13 12:51:50;;;;;;;2.08;0.93;;;32.40;85.90;;;;;;5026545;28;20208;-78
2022/07/13 12:54:39;;;;;;;1.13;1.10;;;32.60;78.00;;;;;;5021567;28;20223;-78
2022/07/13 12:57:10;;;;;;;1.50;1.40;;;32.70;80.90;;;;;;5029684;28;20717;-75
2022/07/13 12:59:37;;;;;;;1.67;1.10;;;32.80;83.10;;;;;;5014231;28;20246;-75
2022/07/13 13:02:05;;;;;;;2.20;1.40;;;33.00;83.40;;;;;;5017127;28;20701;-76
2022/07/13 13:04:33;;;;;;;2.00;1.40;;;33.00;80.20;;;;;;5025311;28;20200;-76
2022/07/13 13:07:00;;;;;;;1.30;1.20;;;33.00;80.50;;;;;;5023076;28;20223;-75